sensor_id;sensor_type;location;lat;lon;timestamp;temperature;humidity
21861;DHT22;11095;48.066;8.540;2023-05-01T00:00:50;9.40;99.90
21861;DHT22;11095;48.066;8.540;2023-05-01T00:03:17;9.40;99.90
21861;DHT22;11095;48.066;8.540;2023-05-01T00:05:43;9.40;99.90
21861;DHT22;11095;48.066;8.540;2023-05-01T00:08:09;9.40;99.90
21861;DHT22;11095;48.066;8.540;2023-05-01T00:10:36;9.40;99.90
21861;DHT22;11095;48.066;8.540;2023-05-01T00:13:02;9.40;99.90
21861;DHT22;11095;48.066;8.540;2023-05-01T00:15:28;9.40;99.90
21861;DHT22;11095;48.066;8.540;2023-05-01T00:17:54;9.40;99.90
21861;DHT22;11095;48.066;8.540;2023-05-01T00:20:19;9.40;99.90
21861;DHT22;11095;48.066;8.540;2023-05-01T00:22:45;9.50;99.90
21861;DHT22;11095;48.066;8.540;2023-05-01T00:25:12;9.50;99.90
21861;DHT22;11095;48.066;8.540;2023-05-01T00:27:37;9.50;99.90
21861;DHT22;11095;48.066;8.540;2023-05-01T00:30:03;9.50;99.90
21861;DHT22;11095;48.066;8.540;2023-05-01T00:32:29;9.50;99.90
21861;DHT22;11095;48.066;8.540;2023-05-01T00:34:55;9.50;99.90
21861;DHT22;11095;48.066;8.540;2023-05-01T00:37:22;9.50;99.90
21861;DHT22;11095;48.066;8.540;2023-05-01T00:39:48;9.50;99.90
21861;DHT22;11095;48.066;8.540;2023-05-01T00:42:14;9.50;99.90
21861;DHT22;11095;48.066;8.540;2023-05-01T00:44:40;9.40;99.90
21861;DHT22;11095;48.066;8.540;2023-05-01T00:47:05;9.40;99.90
21861;DHT22;11095;48.066;8.540;2023-05-01T00:49:31;9.40;99.90
21861;DHT22;11095;48.066;8.540;2023-05-01T00:51:57;9.40;99.90
21861;DHT22;11095;48.066;8.540;2023-05-01T00:54:23;9.40;99.90
21861;DHT22;11095;48.066;8.540;2023-05-01T00:56:50;9.40;99.90
21861;DHT22;11095;48.066;8.540;2023-05-01T00:59:16;9.40;99.90
21861;DHT22;11095;48.066;8.540;2023-05-01T01:01:42;9.40;99.90
21861;DHT22;11095;48.066;8.540;2023-05-01T01:04:08;9.40;99.90
21861;DHT22;11095;48.066;8.540;2023-05-01T01:14:41;9.20;99.90
21861;DHT22;11095;48.066;8.540;2023-05-01T01:17:13;9.20;99.90
21861;DHT22;11095;48.066;8.540;2023-05-01T01:20:09;9.10;99.90
21861;DHT22;11095;48.066;8.540;2023-05-01T01:22:42;9.10;99.90
21861;DHT22;11095;48.066;8.540;2023-05-01T01:30:46;9.10;99.90
21861;DHT22;11095;48.066;8.540;2023-05-01T01:33:24;9.10;
21861;DHT22;11095;48.066;8.540;2023-05-01T01:35:55;9.10;99.90
21861;DHT22;11095;48.066;8.540;2023-05-01T01:41:07;9.10;99.90
21861;DHT22;11095;48.066;8.540;2023-05-01T01:43:39;9.10;99.90
21861;DHT22;11095;48.066;8.540;2023-05-01T01:46:09;9.10;99.90
21861;DHT22;11095;48.066;8.540;2023-05-01T01:48:39;9.10;99.90
21861;DHT22;11095;48.066;8.540;2023-05-01T01:51:10;9.10;99.90
21861;DHT22;11095;48.066;8.540;2023-05-01T01:53:39;9.10;99.90
21861;DHT22;11095;48.066;8.540;2023-05-01T01:56:06;9.10;99.90
21861;DHT22;11095;48.066;8.540;2023-05-01T01:58:34;9.10;99.90
21861;DHT22;11095;48.066;8.540;2023-05-01T02:01:01;9.20;99.90
21861;DHT22;11095;48.066;8.540;2023-05-01T02:03:28;9.20;99.90
21861;DHT22;11095;48.066;8.540;2023-05-01T02:05:55;9.30;99.90
21861;DHT22;11095;48.066;8.540;2023-05-01T02:08:23;9.30;99.90
21861;DHT22;11095;48.066;8.540;2023-05-01T02:10:50;9.20;99.90
21861;DHT22;11095;48.066;8.540;2023-05-01T02:13:17;9.30;99.90
21861;DHT22;11095;48.066;8.540;2023-05-01T02:15:44;9.30;99.90
21861;DHT22;11095;48.066;8.540;2023-05-01T02:18:12;9.20;99.90
21861;DHT22;11095;48.066;8.540;2023-05-01T02:20:40;9.30;99.90
21861;DHT22;11095;48.066;8.540;2023-05-01T02:23:07;9.30;99.90
21861;DHT22;11095;48.066;8.540;2023-05-01T02:25:35;9.30;99.90
21861;DHT22;11095;48.066;8.540;2023-05-01T02:28:12;9.30;99.90
21861;DHT22;11095;48.066;8.540;2023-05-01T02:30:40;9.30;99.90
21861;DHT22;11095;48.066;8.540;2023-05-01T02:33:06;9.30;99.90
21861;DHT22;11095;48.066;8.540;2023-05-01T02:35:42;9.30;99.90
21861;DHT22;11095;48.066;8.540;2023-05-01T02:38:09;9.30;99.90
21861;DHT22;11095;48.066;8.540;2023-05-01T02:40:38;9.30;99.90
21861;DHT22;11095;48.066;8.540;2023-05-01T02:43:06;9.20;99.90
21861;DHT22;11095;48.066;8.540;2023-05-01T02:45:36;9.20;99.90
21861;DHT22;11095;48.066;8.540;2023-05-01T02:48:04;9.20;99.90
21861;DHT22;11095;48.066;8.540;2023-05-01T02:50:31;9.10;99.90
21861;DHT22;11095;48.066;8.540;2023-05-01T02:52:58;9.10;99.90
21861;DHT22;11095;48.066;8.540;2023-05-01T02:55:25;9.10;99.90
21861;DHT22;11095;48.066;8.540;2023-05-01T02:57:51;9.10;99.90
21861;DHT22;11095;48.066;8.540;2023-05-01T03:00:17;9.10;99.90
21861;DHT22;11095;48.066;8.540;2023-05-01T03:02:44;9.10;99.90
21861;DHT22;11095;48.066;8.540;2023-05-01T03:05:09;9.10;99.90
21861;DHT22;11095;48.066;8.540;2023-05-01T03:07:35;9.10;99.90
21861;DHT22;11095;48.066;8.540;2023-05-01T03:10:02;9.10;99.90
21861;DHT22;11095;48.066;8.540;2023-05-01T03:12:29;9.10;99.90
21861;DHT22;11095;48.066;8.540;2023-05-01T03:14:55;9.10;99.90
21861;DHT22;11095;48.066;8.540;2023-05-01T03:17:21;9.10;99.90
21861;DHT22;11095;48.066;8.540;2023-05-01T03:19:47;9.10;99.90
21861;DHT22;11095;48.066;8.540;2023-05-01T03:22:14;9.10;99.90
21861;DHT22;11095;48.066;8.540;2023-05-01T03:24:39;9.10;99.90
21861;DHT22;11095;48.066;8.540;2023-05-01T03:27:05;9.10;99.90
21861;DHT22;11095;48.066;8.540;2023-05-01T03:29:32;9.10;99.90
21861;DHT22;11095;48.066;8.540;2023-05-01T03:31:58;9.20;99.90
21861;DHT22;11095;48.066;8.540;2023-05-01T03:34:24;9.20;99.90
21861;DHT22;11095;48.066;8.540;2023-05-01T03:36:51;9.10;99.90
21861;DHT22;11095;48.066;8.540;2023-05-01T03:39:16;9.10;99.90
21861;DHT22;11095;48.066;8.540;2023-05-01T03:41:42;9.10;99.90
21861;DHT22;11095;48.066;8.540;2023-05-01T03:44:07;9.10;99.90
21861;DHT22;11095;48.066;8.540;2023-05-01T03:46:33;9.10;99.90
21861;DHT22;11095;48.066;8.540;2023-05-01T03:48:59;9.10;99.90
21861;DHT22;11095;48.066;8.540;2023-05-01T03:51:25;9.10;99.90
21861;DHT22;11095;48.066;8.540;2023-05-01T03:53:51;9.00;99.90
21861;DHT22;11095;48.066;8.540;2023-05-01T03:56:17;9.00;99.90
21861;DHT22;11095;48.066;8.540;2023-05-01T03:58:43;9.00;99.90
21861;DHT22;11095;48.066;8.540;2023-05-01T04:01:08;9.00;99.90
21861;DHT22;11095;48.066;8.540;2023-05-01T04:03:34;8.90;99.90
21861;DHT22;11095;48.066;8.540;2023-05-01T04:06:00;8.90;99.90
21861;DHT22;11095;48.066;8.540;2023-05-01T04:08:26;8.90;99.90
21861;DHT22;11095;48.066;8.540;2023-05-01T04:10:51;8.90;99.90
21861;DHT22;11095;48.066;8.540;2023-05-01T04:13:17;8.90;99.90
21861;DHT22;11095;48.066;8.540;2023-05-01T04:15:45;8.90;99.90
21861;DHT22;11095;48.066;8.540;2023-05-01T04:18:11;8.80;99.90
21861;DHT22;11095;48.066;8.540;2023-05-01T04:20:37;8.80;99.90
21861;DHT22;11095;48.066;8.540;2023-05-01T04:23:04;8.80;99.90
21861;DHT22;11095;48.066;8.540;2023-05-01T04:25:30;8.80;99.90
21861;DHT22;11095;48.066;8.540;2023-05-01T04:27:56;8.70;99.90
21861;DHT22;11095;48.066;8.540;2023-05-01T04:30:21;8.70;99.90
21861;DHT22;11095;48.066;8.540;2023-05-01T04:32:47;8.70;99.90
21861;DHT22;11095;48.066;8.540;2023-05-01T04:35:13;8.70;99.90
21861;DHT22;11095;48.066;8.540;2023-05-01T04:37:38;8.70;99.90
21861;DHT22;11095;48.066;8.540;2023-05-01T04:40:04;8.70;99.90
21861;DHT22;11095;48.066;8.540;2023-05-01T04:42:31;8.70;99.90
21861;DHT22;11095;48.066;8.540;2023-05-01T04:44:57;8.70;99.90
21861;DHT22;11095;48.066;8.540;2023-05-01T04:47:26;8.70;99.90
21861;DHT22;11095;48.066;8.540;2023-05-01T04:49:51;8.70;99.90
21861;DHT22;11095;48.066;8.540;2023-05-01T04:52:17;8.70;99.90
21861;DHT22;11095;48.066;8.540;2023-05-01T04:54:42;8.70;99.90
21861;DHT22;11095;48.066;8.540;2023-05-01T04:57:08;8.70;99.90
21861;DHT22;11095;48.066;8.540;2023-05-01T04:59:34;8.60;99.90
21861;DHT22;11095;48.066;8.540;2023-05-01T05:01:59;8.60;99.90
21861;DHT22;11095;48.066;8.540;2023-05-01T05:04:25;8.60;99.90
21861;DHT22;11095;48.066;8.540;2023-05-01T05:06:51;8.70;99.90
21861;DHT22;11095;48.066;8.540;2023-05-01T05:09:16;8.60;99.90
21861;DHT22;11095;48.066;8.540;2023-05-01T05:11:42;8.70;99.90
21861;DHT22;11095;48.066;8.540;2023-05-01T05:14:09;8.60;99.90
21861;DHT22;11095;48.066;8.540;2023-05-01T05:16:35;8.70;99.90
21861;DHT22;11095;48.066;8.540;2023-05-01T05:19:00;8.70;99.90
21861;DHT22;11095;48.066;8.540;2023-05-01T05:21:26;8.70;99.90
21861;DHT22;11095;48.066;8.540;2023-05-01T05:23:52;8.80;99.90
21861;DHT22;11095;48.066;8.540;2023-05-01T05:26:17;8.80;99.90
21861;DHT22;11095;48.066;8.540;2023-05-01T05:28:43;8.90;99.90
21861;DHT22;11095;48.066;8.540;2023-05-01T05:31:09;9.00;99.90
21861;DHT22;11095;48.066;8.540;2023-05-01T05:33:35;9.10;99.90
21861;DHT22;11095;48.066;8.540;2023-05-01T05:36:01;9.10;99.90
21861;DHT22;11095;48.066;8.540;2023-05-01T05:38:27;9.10;99.90
21861;DHT22;11095;48.066;8.540;2023-05-01T05:40:53;9.20;99.90
21861;DHT22;11095;48.066;8.540;2023-05-01T05:43:19;9.20;99.90
21861;DHT22;11095;48.066;8.540;2023-05-01T05:45:45;9.20;99.90
21861;DHT22;11095;48.066;8.540;2023-05-01T05:48:10;9.20;99.90
21861;DHT22;11095;48.066;8.540;2023-05-01T05:50:36;9.30;99.90
21861;DHT22;11095;48.066;8.540;2023-05-01T05:53:02;9.30;99.90
21861;DHT22;11095;48.066;8.540;2023-05-01T05:55:27;9.30;99.90
21861;DHT22;11095;48.066;8.540;2023-05-01T05:57:53;9.40;99.90
21861;DHT22;11095;48.066;8.540;2023-05-01T06:00:19;9.40;99.90
21861;DHT22;11095;48.066;8.540;2023-05-01T06:02:45;9.50;99.90
21861;DHT22;11095;48.066;8.540;2023-05-01T06:05:10;9.60;99.90
21861;DHT22;11095;48.066;8.540;2023-05-01T06:07:36;9.80;99.90
21861;DHT22;11095;48.066;8.540;2023-05-01T06:10:02;9.80;99.90
21861;DHT22;11095;48.066;8.540;2023-05-01T06:12:31;9.90;99.90
21861;DHT22;11095;48.066;8.540;2023-05-01T06:14:57;10.00;99.90
21861;DHT22;11095;48.066;8.540;2023-05-01T06:17:24;10.10;99.90
21861;DHT22;11095;48.066;8.540;2023-05-01T06:19:50;10.10;99.90
21861;DHT22;11095;48.066;8.540;2023-05-01T06:22:19;10.20;99.90
21861;DHT22;11095;48.066;8.540;2023-05-01T06:24:45;10.20;99.90
21861;DHT22;11095;48.066;8.540;2023-05-01T06:27:11;10.40;99.90
21861;DHT22;11095;48.066;8.540;2023-05-01T06:29:44;10.60;99.90
21861;DHT22;11095;48.066;8.540;2023-05-01T06:32:10;10.80;99.90
21861;DHT22;11095;48.066;8.540;2023-05-01T06:34:35;11.00;99.90
21861;DHT22;11095;48.066;8.540;2023-05-01T06:37:01;11.10;99.90
21861;DHT22;11095;48.066;8.540;2023-05-01T06:39:29;11.30;99.90
21861;DHT22;11095;48.066;8.540;2023-05-01T06:41:55;11.30;99.90
21861;DHT22;11095;48.066;8.540;2023-05-01T06:44:20;11.40;99.90
21861;DHT22;11095;48.066;8.540;2023-05-01T06:46:46;11.30;99.90
21861;DHT22;11095;48.066;8.540;2023-05-01T06:49:12;11.30;99.90
21861;DHT22;11095;48.066;8.540;2023-05-01T06:51:37;11.30;99.90
21861;DHT22;11095;48.066;8.540;2023-05-01T06:54:03;11.30;99.90
21861;DHT22;11095;48.066;8.540;2023-05-01T06:56:29;11.30;99.90
21861;DHT22;11095;48.066;8.540;2023-05-01T06:58:56;11.30;99.90
21861;DHT22;11095;48.066;8.540;2023-05-01T07:01:22;11.30;99.90
21861;DHT22;11095;48.066;8.540;2023-05-01T07:03:47;11.40;99.90
21861;DHT22;11095;48.066;8.540;2023-05-01T07:06:13;11.40;99.90
21861;DHT22;11095;48.066;8.540;2023-05-01T07:08:39;11.50;99.90
21861;DHT22;11095;48.066;8.540;2023-05-01T07:11:05;11.60;99.90
21861;DHT22;11095;48.066;8.540;2023-05-01T07:13:31;11.80;99.90
21861;DHT22;11095;48.066;8.540;2023-05-01T07:15:57;12.00;99.90
21861;DHT22;11095;48.066;8.540;2023-05-01T07:18:23;12.30;99.90
21861;DHT22;11095;48.066;8.540;2023-05-01T07:20:48;12.50;99.90
21861;DHT22;11095;48.066;8.540;2023-05-01T07:23:14;12.80;99.90
21861;DHT22;11095;48.066;8.540;2023-05-01T07:25:40;13.20;99.90
21861;DHT22;11095;48.066;8.540;2023-05-01T07:28:07;13.40;99.90
21861;DHT22;11095;48.066;8.540;2023-05-01T07:30:34;13.50;99.90
21861;DHT22;11095;48.066;8.540;2023-05-01T07:33:00;13.50;99.90
21861;DHT22;11095;48.066;8.540;2023-05-01T07:35:26;13.40;99.90
21861;DHT22;11095;48.066;8.540;2023-05-01T07:37:52;13.20;99.90
21861;DHT22;11095;48.066;8.540;2023-05-01T07:40:19;13.00;99.90
21861;DHT22;11095;48.066;8.540;2023-05-01T07:42:45;12.80;99.90
21861;DHT22;11095;48.066;8.540;2023-05-01T07:45:10;12.60;99.90
21861;DHT22;11095;48.066;8.540;2023-05-01T07:47:36;12.50;99.90
21861;DHT22;11095;48.066;8.540;2023-05-01T07:50:02;12.40;99.90
21861;DHT22;11095;48.066;8.540;2023-05-01T07:52:28;12.30;99.90
21861;DHT22;11095;48.066;8.540;2023-05-01T07:54:54;12.30;99.90
21861;DHT22;11095;48.066;8.540;2023-05-01T07:57:20;12.20;99.90
21861;DHT22;11095;48.066;8.540;2023-05-01T07:59:47;12.10;99.90
21861;DHT22;11095;48.066;8.540;2023-05-01T08:02:17;12.10;99.90
21861;DHT22;11095;48.066;8.540;2023-05-01T08:04:43;12.10;99.90
21861;DHT22;11095;48.066;8.540;2023-05-01T08:07:10;12.10;99.90
21861;DHT22;11095;48.066;8.540;2023-05-01T08:09:35;12.10;99.90
21861;DHT22;11095;48.066;8.540;2023-05-01T08:12:01;12.10;99.90
21861;DHT22;11095;48.066;8.540;2023-05-01T08:14:28;12.10;99.90
21861;DHT22;11095;48.066;8.540;2023-05-01T08:16:53;12.00;99.90
21861;DHT22;11095;48.066;8.540;2023-05-01T08:19:19;11.90;99.90
21861;DHT22;11095;48.066;8.540;2023-05-01T08:21:46;11.80;99.90
21861;DHT22;11095;48.066;8.540;2023-05-01T08:24:11;11.70;99.90
21861;DHT22;11095;48.066;8.540;2023-05-01T08:26:37;11.60;99.90
21861;DHT22;11095;48.066;8.540;2023-05-01T08:29:02;11.50;99.90
21861;DHT22;11095;48.066;8.540;2023-05-01T08:31:28;11.50;99.90
21861;DHT22;11095;48.066;8.540;2023-05-01T08:33:54;11.50;99.90
21861;DHT22;11095;48.066;8.540;2023-05-01T08:36:19;11.50;99.90
21861;DHT22;11095;48.066;8.540;2023-05-01T08:38:45;11.50;99.90
21861;DHT22;11095;48.066;8.540;2023-05-01T08:41:15;11.50;99.90
21861;DHT22;11095;48.066;8.540;2023-05-01T08:43:43;11.60;99.90
21861;DHT22;11095;48.066;8.540;2023-05-01T08:46:11;11.60;99.90
21861;DHT22;11095;48.066;8.540;2023-05-01T08:48:40;11.70;99.90
21861;DHT22;11095;48.066;8.540;2023-05-01T08:51:09;11.80;99.90
21861;DHT22;11095;48.066;8.540;2023-05-01T08:53:36;11.90;99.90
21861;DHT22;11095;48.066;8.540;2023-05-01T08:56:05;12.10;99.90
21861;DHT22;11095;48.066;8.540;2023-05-01T08:58:32;12.30;99.90
21861;DHT22;11095;48.066;8.540;2023-05-01T09:01:00;12.50;99.90
21861;DHT22;11095;48.066;8.540;2023-05-01T09:03:29;12.90;99.90
21861;DHT22;11095;48.066;8.540;2023-05-01T09:05:56;13.20;99.90
21861;DHT22;11095;48.066;8.540;2023-05-01T09:08:22;13.50;99.90
21861;DHT22;11095;48.066;8.540;2023-05-01T09:10:48;13.70;99.90
21861;DHT22;11095;48.066;8.540;2023-05-01T09:13:14;13.90;99.90
21861;DHT22;11095;48.066;8.540;2023-05-01T09:15:40;14.10;99.90
21861;DHT22;11095;48.066;8.540;2023-05-01T09:18:07;14.40;99.90
21861;DHT22;11095;48.066;8.540;2023-05-01T09:20:35;14.70;99.90
21861;DHT22;11095;48.066;8.540;2023-05-01T09:23:02;15.00;99.90
21861;DHT22;11095;48.066;8.540;2023-05-01T09:25:28;15.10;99.90
21861;DHT22;11095;48.066;8.540;2023-05-01T09:27:53;15.30;99.90
21861;DHT22;11095;48.066;8.540;2023-05-01T09:30:33;15.40;99.90
21861;DHT22;11095;48.066;8.540;2023-05-01T09:35:55;15.70;99.90
21861;DHT22;11095;48.066;8.540;2023-05-01T09:38:23;15.60;99.90
21861;DHT22;11095;48.066;8.540;2023-05-01T09:40:49;15.50;99.90
21861;DHT22;11095;48.066;8.540;2023-05-01T09:43:25;15.50;99.90
21861;DHT22;11095;48.066;8.540;2023-05-01T09:46:10;15.50;99.90
21861;DHT22;11095;48.066;8.540;2023-05-01T09:48:37;15.40;99.90
21861;DHT22;11095;48.066;8.540;2023-05-01T09:51:29;15.30;99.90
21861;DHT22;11095;48.066;8.540;2023-05-01T09:53:57;15.10;99.90
21861;DHT22;11095;48.066;8.540;2023-05-01T09:56:25;15.00;99.90
21861;DHT22;11095;48.066;8.540;2023-05-01T09:58:51;14.90;99.90
21861;DHT22;11095;48.066;8.540;2023-05-01T10:01:17;14.80;99.90
21861;DHT22;11095;48.066;8.540;2023-05-01T10:03:44;14.70;99.90
21861;DHT22;11095;48.066;8.540;2023-05-01T10:06:10;14.80;99.90
21861;DHT22;11095;48.066;8.540;2023-05-01T10:08:49;14.70;99.90
21861;DHT22;11095;48.066;8.540;2023-05-01T10:11:15;14.60;99.90
21861;DHT22;11095;48.066;8.540;2023-05-01T10:13:41;14.50;99.90
21861;DHT22;11095;48.066;8.540;2023-05-01T10:16:07;14.40;99.90
21861;DHT22;11095;48.066;8.540;2023-05-01T10:18:54;14.30;99.90
21861;DHT22;11095;48.066;8.540;2023-05-01T10:21:20;14.20;99.90
21861;DHT22;11095;48.066;8.540;2023-05-01T10:23:46;14.10;99.90
21861;DHT22;11095;48.066;8.540;2023-05-01T10:26:13;14.00;99.90
21861;DHT22;11095;48.066;8.540;2023-05-01T10:28:41;14.00;99.90
21861;DHT22;11095;48.066;8.540;2023-05-01T10:31:09;13.90;99.90
21861;DHT22;11095;48.066;8.540;2023-05-01T10:33:38;14.00;99.90
21861;DHT22;11095;48.066;8.540;2023-05-01T10:36:05;14.10;99.90
21861;DHT22;11095;48.066;8.540;2023-05-01T10:38:37;14.10;99.90
21861;DHT22;11095;48.066;8.540;2023-05-01T10:41:03;14.20;99.90
21861;DHT22;11095;48.066;8.540;2023-05-01T10:43:30;14.10;99.90
21861;DHT22;11095;48.066;8.540;2023-05-01T10:53:37;13.70;99.90
21861;DHT22;11095;48.066;8.540;2023-05-01T10:56:03;13.60;99.90
21861;DHT22;11095;48.066;8.540;2023-05-01T11:01:30;13.30;99.90
21861;DHT22;11095;48.066;8.540;2023-05-01T11:03:58;13.30;99.90
21861;DHT22;11095;48.066;8.540;2023-05-01T11:06:25;13.20;99.90
21861;DHT22;11095;48.066;8.540;2023-05-01T11:08:50;13.30;99.90
21861;DHT22;11095;48.066;8.540;2023-05-01T11:13:58;13.50;99.90
21861;DHT22;11095;48.066;8.540;2023-05-01T11:21:47;13.90;99.90
21861;DHT22;11095;48.066;8.540;2023-05-01T11:24:14;14.00;99.90
21861;DHT22;11095;48.066;8.540;2023-05-01T11:26:42;14.10;99.90
21861;DHT22;11095;48.066;8.540;2023-05-01T11:29:09;14.20;99.90
21861;DHT22;11095;48.066;8.540;2023-05-01T11:31:35;14.30;99.90
21861;DHT22;11095;48.066;8.540;2023-05-01T11:34:01;14.30;99.90
21861;DHT22;11095;48.066;8.540;2023-05-01T11:36:28;14.40;99.90
21861;DHT22;11095;48.066;8.540;2023-05-01T11:38:58;14.60;99.90
21861;DHT22;11095;48.066;8.540;2023-05-01T11:41:27;14.80;99.90
21861;DHT22;11095;48.066;8.540;2023-05-01T11:43:54;14.90;99.90
21861;DHT22;11095;48.066;8.540;2023-05-01T11:46:28;15.20;99.90
21861;DHT22;11095;48.066;8.540;2023-05-01T11:48:58;15.50;99.90
21861;DHT22;11095;48.066;8.540;2023-05-01T11:51:24;15.90;99.90
21861;DHT22;11095;48.066;8.540;2023-05-01T11:53:58;16.10;99.90
21861;DHT22;11095;48.066;8.540;2023-05-01T11:56:25;16.30;99.90
21861;DHT22;11095;48.066;8.540;2023-05-01T11:58:52;16.40;99.90
21861;DHT22;11095;48.066;8.540;2023-05-01T12:01:18;16.40;99.90
21861;DHT22;11095;48.066;8.540;2023-05-01T12:03:44;16.70;99.90
21861;DHT22;11095;48.066;8.540;2023-05-01T12:06:11;17.10;99.90
21861;DHT22;11095;48.066;8.540;2023-05-01T12:08:42;17.40;99.90
21861;DHT22;11095;48.066;8.540;2023-05-01T12:11:08;17.80;99.90
21861;DHT22;11095;48.066;8.540;2023-05-01T12:13:34;17.90;99.90
21861;DHT22;11095;48.066;8.540;2023-05-01T12:16:00;17.80;99.90
21861;DHT22;11095;48.066;8.540;2023-05-01T12:18:27;17.70;99.90
21861;DHT22;11095;48.066;8.540;2023-05-01T12:20:53;17.60;99.90
21861;DHT22;11095;48.066;8.540;2023-05-01T12:23:35;17.60;99.90
21861;DHT22;11095;48.066;8.540;2023-05-01T12:28:56;17.60;99.90
21861;DHT22;11095;48.066;8.540;2023-05-01T12:31:23;17.70;99.90
21861;DHT22;11095;48.066;8.540;2023-05-01T12:34:00;17.60;99.90
21861;DHT22;11095;48.066;8.540;2023-05-01T12:36:27;17.30;99.90
21861;DHT22;11095;48.066;8.540;2023-05-01T12:38:56;17.00;99.90
21861;DHT22;11095;48.066;8.540;2023-05-01T12:41:55;16.80;99.90
21861;DHT22;11095;48.066;8.540;2023-05-01T12:44:27;16.40;99.90
21861;DHT22;11095;48.066;8.540;2023-05-01T12:46:58;16.00;99.90
21861;DHT22;11095;48.066;8.540;2023-05-01T12:49:25;15.70;99.90
21861;DHT22;11095;48.066;8.540;2023-05-01T12:51:52;15.50;99.90
21861;DHT22;11095;48.066;8.540;2023-05-01T12:54:23;15.50;99.90
21861;DHT22;11095;48.066;8.540;2023-05-01T12:56:50;15.30;99.90
21861;DHT22;11095;48.066;8.540;2023-05-01T12:59:22;15.30;99.90
21861;DHT22;11095;48.066;8.540;2023-05-01T13:01:59;15.50;99.90
21861;DHT22;11095;48.066;8.540;2023-05-01T13:04:25;15.60;99.90
21861;DHT22;11095;48.066;8.540;2023-05-01T13:06:52;15.80;99.90
21861;DHT22;11095;48.066;8.540;2023-05-01T13:09:25;15.90;99.90
21861;DHT22;11095;48.066;8.540;2023-05-01T13:11:59;16.00;99.90
21861;DHT22;11095;48.066;8.540;2023-05-01T13:14:27;16.20;99.90
21861;DHT22;11095;48.066;8.540;2023-05-01T13:16:54;16.40;99.90
21861;DHT22;11095;48.066;8.540;2023-05-01T13:19:26;16.50;99.90
21861;DHT22;11095;48.066;8.540;2023-05-01T13:21:56;16.80;99.90
21861;DHT22;11095;48.066;8.540;2023-05-01T13:24:42;17.00;99.90
21861;DHT22;11095;48.066;8.540;2023-05-01T13:27:10;17.20;99.90
21861;DHT22;11095;48.066;8.540;2023-05-01T13:29:39;17.30;99.90
21861;DHT22;11095;48.066;8.540;2023-05-01T13:32:10;17.30;99.90
21861;DHT22;11095;48.066;8.540;2023-05-01T13:34:40;17.30;99.90
21861;DHT22;11095;48.066;8.540;2023-05-01T13:37:09;17.30;99.90
21861;DHT22;11095;48.066;8.540;2023-05-01T13:39:42;17.10;99.90
21861;DHT22;11095;48.066;8.540;2023-05-01T13:42:10;17.00;99.90
21861;DHT22;11095;48.066;8.540;2023-05-01T13:44:55;17.20;99.90
21861;DHT22;11095;48.066;8.540;2023-05-01T13:47:23;17.20;99.90
21861;DHT22;11095;48.066;8.540;2023-05-01T13:49:51;17.30;99.90
21861;DHT22;11095;48.066;8.540;2023-05-01T13:52:18;17.60;99.90
21861;DHT22;11095;48.066;8.540;2023-05-01T13:54:45;17.60;99.90
21861;DHT22;11095;48.066;8.540;2023-05-01T13:57:12;17.50;99.90
21861;DHT22;11095;48.066;8.540;2023-05-01T13:59:39;17.40;99.90
21861;DHT22;11095;48.066;8.540;2023-05-01T14:02:17;17.00;99.90
21861;DHT22;11095;48.066;8.540;2023-05-01T14:04:44;16.80;99.90
21861;DHT22;11095;48.066;8.540;2023-05-01T14:07:14;16.60;99.90
21861;DHT22;11095;48.066;8.540;2023-05-01T14:09:43;16.40;99.90
21861;DHT22;11095;48.066;8.540;2023-05-01T14:12:08;16.20;99.90
21861;DHT22;11095;48.066;8.540;2023-05-01T14:14:34;16.10;99.90
21861;DHT22;11095;48.066;8.540;2023-05-01T14:17:00;15.70;99.90
21861;DHT22;11095;48.066;8.540;2023-05-01T14:19:26;15.30;99.90
21861;DHT22;11095;48.066;8.540;2023-05-01T14:21:52;15.00;99.90
21861;DHT22;11095;48.066;8.540;2023-05-01T14:24:17;14.60;99.90
21861;DHT22;11095;48.066;8.540;2023-05-01T14:26:44;14.40;99.90
21861;DHT22;11095;48.066;8.540;2023-05-01T14:29:21;14.20;99.90
21861;DHT22;11095;48.066;8.540;2023-05-01T14:31:48;14.10;99.90
21861;DHT22;11095;48.066;8.540;2023-05-01T14:34:16;14.00;99.90
21861;DHT22;11095;48.066;8.540;2023-05-01T14:36:42;14.00;99.90
21861;DHT22;11095;48.066;8.540;2023-05-01T14:39:08;14.20;99.90
21861;DHT22;11095;48.066;8.540;2023-05-01T14:41:34;14.40;99.90
21861;DHT22;11095;48.066;8.540;2023-05-01T14:44:04;14.60;99.90
21861;DHT22;11095;48.066;8.540;2023-05-01T14:46:34;15.00;99.90
21861;DHT22;11095;48.066;8.540;2023-05-01T14:49:00;15.40;99.90
21861;DHT22;11095;48.066;8.540;2023-05-01T14:51:27;15.70;99.90
21861;DHT22;11095;48.066;8.540;2023-05-01T14:53:53;15.90;99.90
21861;DHT22;11095;48.066;8.540;2023-05-01T14:56:19;16.20;99.90
21861;DHT22;11095;48.066;8.540;2023-05-01T14:58:45;16.20;99.90
21861;DHT22;11095;48.066;8.540;2023-05-01T15:01:12;16.30;99.90
21861;DHT22;11095;48.066;8.540;2023-05-01T15:03:38;16.30;99.90
21861;DHT22;11095;48.066;8.540;2023-05-01T15:06:09;16.30;99.90
21861;DHT22;11095;48.066;8.540;2023-05-01T15:08:35;16.40;99.90
21861;DHT22;11095;48.066;8.540;2023-05-01T15:11:02;16.60;99.90
21861;DHT22;11095;48.066;8.540;2023-05-01T15:13:28;16.80;99.90
21861;DHT22;11095;48.066;8.540;2023-05-01T15:15:56;17.10;99.90
21861;DHT22;11095;48.066;8.540;2023-05-01T15:18:22;17.00;99.90
21861;DHT22;11095;48.066;8.540;2023-05-01T15:20:48;17.20;99.90
21861;DHT22;11095;48.066;8.540;2023-05-01T15:23:13;17.50;99.90
21861;DHT22;11095;48.066;8.540;2023-05-01T15:25:39;17.80;99.90
21861;DHT22;11095;48.066;8.540;2023-05-01T15:28:07;17.80;99.90
21861;DHT22;11095;48.066;8.540;2023-05-01T15:30:33;17.90;99.90
21861;DHT22;11095;48.066;8.540;2023-05-01T15:32:59;18.00;99.90
21861;DHT22;11095;48.066;8.540;2023-05-01T15:35:24;18.00;99.90
21861;DHT22;11095;48.066;8.540;2023-05-01T15:37:50;17.70;99.90
21861;DHT22;11095;48.066;8.540;2023-05-01T15:40:17;17.00;99.90
21861;DHT22;11095;48.066;8.540;2023-05-01T15:42:42;16.10;99.90
21861;DHT22;11095;48.066;8.540;2023-05-01T15:45:10;15.20;99.90
21861;DHT22;11095;48.066;8.540;2023-05-01T15:47:35;15.40;99.90
21861;DHT22;11095;48.066;8.540;2023-05-01T15:50:01;15.40;99.90
21861;DHT22;11095;48.066;8.540;2023-05-01T15:52:26;15.40;99.90
21861;DHT22;11095;48.066;8.540;2023-05-01T15:54:52;15.40;99.90
21861;DHT22;11095;48.066;8.540;2023-05-01T15:57:19;15.50;99.90
21861;DHT22;11095;48.066;8.540;2023-05-01T15:59:44;15.50;99.90
21861;DHT22;11095;48.066;8.540;2023-05-01T16:02:10;15.50;99.90
21861;DHT22;11095;48.066;8.540;2023-05-01T16:04:36;15.60;99.90
21861;DHT22;11095;48.066;8.540;2023-05-01T16:07:03;15.50;99.90
21861;DHT22;11095;48.066;8.540;2023-05-01T16:09:30;15.60;99.90
21861;DHT22;11095;48.066;8.540;2023-05-01T16:11:57;15.60;99.90
21861;DHT22;11095;48.066;8.540;2023-05-01T16:14:24;15.60;99.90
21861;DHT22;11095;48.066;8.540;2023-05-01T16:16:49;15.60;99.90
21861;DHT22;11095;48.066;8.540;2023-05-01T16:19:15;15.60;99.90